createdAt,value
2019-02-21T00:04:21.496Z,12.60
2019-02-21T00:09:25.216Z,11.87
2019-02-21T00:14:29.120Z,11.97
2019-02-21T00:19:32.822Z,11.23
2019-02-21T00:24:36.649Z,11.63
2019-02-21T00:29:40.364Z,11.60
2019-02-21T00:34:44.092Z,10.87
2019-02-21T00:39:47.805Z,11.90
2019-02-21T00:44:51.676Z,10.83
2019-02-21T00:49:55.491Z,11.73
2019-02-21T00:54:59.238Z,10.90
2019-02-21T01:00:03.129Z,11.60
2019-02-21T01:05:06.822Z,11.80
2019-02-21T01:10:10.523Z,11.63
2019-02-21T01:15:14.449Z,11.50
2019-02-21T01:20:18.154Z,12.20
2019-02-21T01:25:21.835Z,12.30
2019-02-21T01:30:25.628Z,11.17
2019-02-21T01:35:29.345Z,11.80
2019-02-21T01:40:33.552Z,11.37
2019-02-21T01:45:37.441Z,12.40
2019-02-21T01:50:41.229Z,11.63
2019-02-21T01:55:45.402Z,11.60
2019-02-21T02:00:49.091Z,12.37
2019-02-21T02:05:52.940Z,10.83
2019-02-21T02:10:56.709Z,11.60
2019-02-21T02:16:00.744Z,12.63
2019-02-21T02:21:05.395Z,11.70
2019-02-21T02:26:09.333Z,12.10
2019-02-21T02:31:21.938Z,12.17
2019-02-21T02:36:18.504Z,11.37
2019-02-21T02:41:22.483Z,11.43
2019-02-21T02:46:26.528Z,12.00
2019-02-21T02:51:30.589Z,12.40
2019-02-21T02:56:34.629Z,11.47
2019-02-21T03:01:38.779Z,12.33
2019-02-21T03:06:42.536Z,11.73
2019-02-21T03:11:46.293Z,11.37
2019-02-21T03:16:50.331Z,11.97
2019-02-21T03:21:54.355Z,12.50
2019-02-21T03:26:58.317Z,12.07
2019-02-21T03:32:02.198Z,13.07
2019-02-21T03:37:05.928Z,12.77
2019-02-21T03:42:09.755Z,12.83
2019-02-21T03:47:13.481Z,11.97
2019-02-21T03:52:17.478Z,11.07
2019-02-21T03:57:21.484Z,11.77
2019-02-21T04:02:25.165Z,11.63
2019-02-21T04:07:28.856Z,11.30
2019-02-21T04:12:32.937Z,11.40
2019-02-21T04:17:37.043Z,11.60
2019-02-21T04:22:41.053Z,11.57
2019-02-21T04:27:44.779Z,12.10
2019-02-21T04:32:48.477Z,11.37
2019-02-21T04:37:52.481Z,11.53
2019-02-21T04:42:56.254Z,12.97
2019-02-21T04:47:59.965Z,12.87
2019-02-21T04:53:03.676Z,11.60
2019-02-21T04:58:07.875Z,12.80
2019-02-21T05:03:11.882Z,11.10
2019-02-21T05:08:15.676Z,11.13
2019-02-21T05:13:19.662Z,11.03
2019-02-21T05:18:23.340Z,11.23
2019-02-21T05:23:27.035Z,14.33
2019-02-21T05:28:31.901Z,13.17
2019-02-21T05:33:53.338Z,12.40
2019-02-21T05:39:13.728Z,12.13
2019-02-21T05:44:29.432Z,12.77
2019-02-21T05:49:52.560Z,12.30
2019-02-21T05:55:07.326Z,11.67
2019-02-21T06:00:21.598Z,10.60
2019-02-21T06:05:47.537Z,11.33
2019-02-21T06:11:22.632Z,10.97
2019-02-21T06:16:44.573Z,11.83
2019-02-21T06:22:10.654Z,12.53
2019-02-21T06:27:22.625Z,12.10
2019-02-21T06:32:26.300Z,12.27
2019-02-21T06:37:29.977Z,11.73
2019-02-21T06:42:33.660Z,12.17
2019-02-21T06:47:37.589Z,13.60
2019-02-21T06:52:41.267Z,12.40
2019-02-21T06:57:45.248Z,11.70
2019-02-21T07:02:48.937Z,12.20
2019-02-21T07:07:53.125Z,13.13
2019-02-21T07:13:01.398Z,13.03
2019-02-21T07:18:05.155Z,13.20
2019-02-21T07:23:11.200Z,12.90
2019-02-21T07:28:15.924Z,12.63
2019-02-21T07:33:28.303Z,13.00
2019-02-21T07:38:26.768Z,12.67
2019-02-21T07:43:30.479Z,13.27
2019-02-21T07:48:36.405Z,12.53
2019-02-21T07:53:39.855Z,12.60
2019-02-21T07:58:43.968Z,12.07
2019-02-21T08:03:48.666Z,11.87
2019-02-21T08:08:52.631Z,11.93
2019-02-21T08:13:56.538Z,11.47
2019-02-21T08:19:00.483Z,10.77
2019-02-21T08:24:04.266Z,11.30
2019-02-21T08:29:07.962Z,12.57
2019-02-21T08:34:37.001Z,13.43
2019-02-21T08:39:41.330Z,12.70
2019-02-21T08:44:45.070Z,11.33
2019-02-21T08:49:49.096Z,12.67
2019-02-21T08:54:59.906Z,13.30
2019-02-21T08:59:58.507Z,16.10
2019-02-21T09:05:02.630Z,15.97
2019-02-21T09:10:07.357Z,16.70
2019-02-21T09:15:13.177Z,16.20
2019-02-21T09:20:17.943Z,16.10
2019-02-21T09:25:21.657Z,14.97
2019-02-21T09:30:25.420Z,16.03
2019-02-21T09:35:29.518Z,16.53
2019-02-21T09:40:33.517Z,17.63
2019-02-21T09:45:37.927Z,17.20
2019-02-21T09:50:42.208Z,16.47
2019-02-21T09:55:46.269Z,17.40
2019-02-21T10:00:50.110Z,17.80
2019-02-21T10:05:54.336Z,18.13
2019-02-21T10:11:00.853Z,17.43
2019-02-21T10:16:05.030Z,17.00
2019-02-21T10:21:09.396Z,17.53
2019-02-21T10:26:13.449Z,16.10
2019-02-21T10:31:17.971Z,18.17
2019-02-21T10:36:21.793Z,17.13
2019-02-21T10:41:25.590Z,16.90
2019-02-21T10:46:30.924Z,17.17
2019-02-21T10:51:34.878Z,15.10
2019-02-21T10:56:38.673Z,16.30
2019-02-21T11:01:42.419Z,15.70
2019-02-21T11:06:46.120Z,16.60
2019-02-21T11:11:49.848Z,18.20
2019-02-21T11:16:53.980Z,19.20
2019-02-21T11:21:57.796Z,19.37
2019-02-21T11:27:01.788Z,19.00
2019-02-21T11:32:05.673Z,17.77
2019-02-21T11:37:09.464Z,17.77
2019-02-21T11:42:14.598Z,16.83
2019-02-21T11:47:18.663Z,16.50
2019-02-21T11:52:22.477Z,16.87
2019-02-21T11:57:26.338Z,17.27
2019-02-21T12:02:38.668Z,16.50
2019-02-21T12:07:35.819Z,16.63
2019-02-21T12:12:39.673Z,16.23
2019-02-21T12:17:43.893Z,16.13
2019-02-21T12:22:47.703Z,17.73
2019-02-21T12:27:52.505Z,16.77
2019-02-21T12:32:56.236Z,16.03
2019-02-21T12:38:00.132Z,16.03
2019-02-21T12:43:03.980Z,15.80
2019-02-21T12:48:08.248Z,15.10
2019-02-21T12:53:12.104Z,15.37
2019-02-21T12:58:16.150Z,14.90
2019-02-21T13:03:19.894Z,14.10
2019-02-21T13:08:23.608Z,13.17
2019-02-21T13:13:27.739Z,12.20
2019-02-21T13:18:31.460Z,12.87
2019-02-21T13:23:35.502Z,11.97
2019-02-21T13:28:39.200Z,12.13
2019-02-21T13:33:42.934Z,12.47
2019-02-21T13:38:46.683Z,11.87
2019-02-21T13:43:50.734Z,10.67
2019-02-21T13:49:06.480Z,10.63
2019-02-21T13:54:14.206Z,10.37
2019-02-21T13:59:34.760Z,10.70
2019-02-21T14:04:37.386Z,11.70
2019-02-21T14:09:41.108Z,11.43
2019-02-21T14:14:45.447Z,11.47
2019-02-21T14:19:49.281Z,11.47
2019-02-21T14:24:53.224Z,11.30
2019-02-21T14:29:57.061Z,10.80
2019-02-21T14:35:01.052Z,12.47
2019-02-21T14:40:05.309Z,12.77
2019-02-21T14:45:12.280Z,13.30
2019-02-21T14:50:16.772Z,12.57
2019-02-21T14:55:20.466Z,13.70
2019-02-21T15:00:24.271Z,14.17
2019-02-21T15:05:27.998Z,13.97
2019-02-21T15:10:32.114Z,15.20
2019-02-21T15:15:35.953Z,14.90
2019-02-21T15:20:40.005Z,15.17
2019-02-21T15:25:44.011Z,15.57
2019-02-21T15:30:47.750Z,15.37
2019-02-21T15:35:51.466Z,15.80
2019-02-21T15:40:55.614Z,15.50
2019-02-21T15:45:59.633Z,16.30
2019-02-21T15:51:03.336Z,15.60
2019-02-21T15:56:07.064Z,15.77
2019-02-21T16:01:10.761Z,14.80
2019-02-21T16:06:14.509Z,15.43
2019-02-21T16:11:18.221Z,14.93
2019-02-21T16:16:21.925Z,16.13
2019-02-21T16:21:25.603Z,16.50
2019-02-21T16:26:29.283Z,15.50
2019-02-21T16:31:33.034Z,15.97
2019-02-21T16:36:36.713Z,15.83
2019-02-21T16:41:40.532Z,16.00
2019-02-21T16:46:44.551Z,15.50
2019-02-21T16:51:48.513Z,15.00
2019-02-21T16:56:52.719Z,15.30
2019-02-21T17:01:56.441Z,14.07
2019-02-21T17:07:00.468Z,14.07
2019-02-21T17:12:05.171Z,13.47
2019-02-21T17:17:08.923Z,12.97
2019-02-21T17:22:12.921Z,14.03
2019-02-21T17:27:17.382Z,14.07
2019-02-21T17:32:21.435Z,13.33
2019-02-21T17:37:25.468Z,13.97
2019-02-21T17:42:29.403Z,14.10
2019-02-21T17:47:33.073Z,13.57
2019-02-21T17:52:36.781Z,13.87
2019-02-21T17:57:40.455Z,13.33
2019-02-21T18:02:44.120Z,12.23
2019-02-21T18:07:47.808Z,11.77
2019-02-21T18:12:51.836Z,11.63
2019-02-21T18:17:55.935Z,11.03
2019-02-21T18:22:59.897Z,11.73
2019-02-21T18:28:03.568Z,12.73
2019-02-21T18:33:08.053Z,12.17
2019-02-21T18:38:12.135Z,13.20
2019-02-21T18:43:15.882Z,13.17
2019-02-21T18:48:19.643Z,12.90
2019-02-21T18:53:24.989Z,14.27
2019-02-21T18:58:28.742Z,15.23
2019-02-21T19:03:32.724Z,16.00
2019-02-21T19:08:36.386Z,16.53
2019-02-21T19:13:40.095Z,16.97
2019-02-21T19:18:43.840Z,15.70
2019-02-21T19:23:56.470Z,17.43
2019-02-21T19:29:00.437Z,17.57
2019-02-21T19:34:04.153Z,18.50
2019-02-21T19:39:08.379Z,18.27
2019-02-21T19:44:12.382Z,16.30
2019-02-21T19:49:16.067Z,18.03
2019-02-21T19:54:19.868Z,18.00
2019-02-21T19:59:24.052Z,17.67
2019-02-21T20:04:28.171Z,17.47
2019-02-21T20:09:32.719Z,17.70
2019-02-21T20:14:38.251Z,19.53
2019-02-21T20:19:43.890Z,19.93
2019-02-21T20:24:48.006Z,20.17
2019-02-21T20:29:52.084Z,21.20
2019-02-21T20:34:56.133Z,22.03
2019-02-21T20:39:59.866Z,23.90
2019-02-21T20:45:05.767Z,22.37
2019-02-21T20:50:10.689Z,24.40
2019-02-21T20:55:15.038Z,22.57
2019-02-21T21:00:20.299Z,22.67
2019-02-21T21:05:24.898Z,23.67
2019-02-21T21:10:29.945Z,24.03
2019-02-21T21:15:34.383Z,25.23
2019-02-21T21:20:38.151Z,27.50
2019-02-21T21:25:41.950Z,26.43
2019-02-21T21:30:45.641Z,26.33
2019-02-21T21:35:49.458Z,27.60
2019-02-21T21:40:53.516Z,24.30
2019-02-21T21:46:01.231Z,25.00
2019-02-21T21:51:05.069Z,27.20
2019-02-21T21:56:09.899Z,31.17
2019-02-21T22:01:13.586Z,31.33
2019-02-21T22:06:17.343Z,31.53
2019-02-21T22:11:24.050Z,32.80
2019-02-21T22:16:28.146Z,34.20
2019-02-21T22:21:31.851Z,33.77
2019-02-21T22:26:35.681Z,34.93
2019-02-21T22:31:39.755Z,38.03
2019-02-21T22:36:44.114Z,38.77
2019-02-21T22:41:48.050Z,40.47
2019-02-21T22:46:52.070Z,41.50
2019-02-21T22:51:55.800Z,41.83
2019-02-21T22:56:59.482Z,44.00
2019-02-21T23:02:03.686Z,43.77
2019-02-21T23:07:44.463Z,43.60
2019-02-21T23:12:49.237Z,43.60
2019-02-21T23:17:53.367Z,42.93
2019-02-21T23:22:57.088Z,41.57
2019-02-21T23:28:03.950Z,42.23
2019-02-21T23:33:07.784Z,40.17
2019-02-21T23:38:11.735Z,39.27
2019-02-21T23:43:15.589Z,41.27
2019-02-21T23:48:19.771Z,41.23
2019-02-21T23:53:23.588Z,43.33
2019-02-21T23:58:27.572Z,40.47
